sensor_id;sensor_type;location;lat;lon;timestamp;temperature;humidity
67165;SHT31;54093;50.014;19.984;2023-04-16T00:08:58;7.27;75.94
67165;SHT31;54093;50.014;19.984;2023-04-16T00:18:19;7.02;76.60
67165;SHT31;54093;50.014;19.984;2023-04-16T00:27:41;7.17;76.96
67165;SHT31;54093;50.014;19.984;2023-04-16T00:37:01;7.17;76.30
67165;SHT31;54093;50.014;19.984;2023-04-16T00:46:23;7.10;76.87
67165;SHT31;54093;50.014;19.984;2023-04-16T00:55:44;7.07;73.84
67165;SHT31;54093;50.014;19.984;2023-04-16T01:05:05;6.75;74.58
67165;SHT31;54093;50.014;19.984;2023-04-16T01:14:27;6.61;76.15
67165;SHT31;54093;50.014;19.984;2023-04-16T01:23:48;6.55;73.69
67165;SHT31;54093;50.014;19.984;2023-04-16T01:33:10;6.38;73.17
67165;SHT31;54093;50.014;19.984;2023-04-16T01:42:33;6.13;74.23
67165;SHT31;54093;50.014;19.984;2023-04-16T01:51:53;5.99;74.62
67165;SHT31;54093;50.014;19.984;2023-04-16T02:01:14;6.02;75.72
67165;SHT31;54093;50.014;19.984;2023-04-16T02:10:35;6.07;75.15
67165;SHT31;54093;50.014;19.984;2023-04-16T02:19:56;6.04;75.35
67165;SHT31;54093;50.014;19.984;2023-04-16T02:29:17;5.92;76.13
67165;SHT31;54093;50.014;19.984;2023-04-16T02:38:39;5.75;77.45
67165;SHT31;54093;50.014;19.984;2023-04-16T02:48:01;5.95;77.24
67165;SHT31;54093;50.014;19.984;2023-04-16T02:57:22;5.93;76.50
67165;SHT31;54093;50.014;19.984;2023-04-16T03:06:42;5.89;76.90
67165;SHT31;54093;50.014;19.984;2023-04-16T03:16:03;5.72;76.94
67165;SHT31;54093;50.014;19.984;2023-04-16T03:25:24;5.51;77.73
67165;SHT31;54093;50.014;19.984;2023-04-16T03:34:45;5.37;78.13
67165;SHT31;54093;50.014;19.984;2023-04-16T03:44:09;5.14;79.26
67165;SHT31;54093;50.014;19.984;2023-04-16T03:53:30;5.07;79.66
67165;SHT31;54093;50.014;19.984;2023-04-16T04:02:51;5.28;78.44
67165;SHT31;54093;50.014;19.984;2023-04-16T04:12:12;5.32;77.18
67165;SHT31;54093;50.014;19.984;2023-04-16T04:21:33;5.23;77.47
67165;SHT31;54093;50.014;19.984;2023-04-16T04:30:54;5.13;78.84
67165;SHT31;54093;50.014;19.984;2023-04-16T04:40:15;5.45;78.79
67165;SHT31;54093;50.014;19.984;2023-04-16T04:49:35;5.66;77.96
67165;SHT31;54093;50.014;19.984;2023-04-16T04:58:56;5.77;77.45
67165;SHT31;54093;50.014;19.984;2023-04-16T05:08:17;5.85;78.35
67165;SHT31;54093;50.014;19.984;2023-04-16T05:17:38;6.13;79.31
67165;SHT31;54093;50.014;19.984;2023-04-16T05:27:00;6.42;78.70
67165;SHT31;54093;50.014;19.984;2023-04-16T05:36:21;6.79;77.69
67165;SHT31;54093;50.014;19.984;2023-04-16T05:45:42;7.19;76.24
67165;SHT31;54093;50.014;19.984;2023-04-16T05:55:04;7.44;75.94
67165;SHT31;54093;50.014;19.984;2023-04-16T06:04:25;7.93;76.87
67165;SHT31;54093;50.014;19.984;2023-04-16T06:13:46;8.44;74.32
67165;SHT31;54093;50.014;19.984;2023-04-16T06:23:07;9.25;78.63
67165;SHT31;54093;50.014;19.984;2023-04-16T06:32:29;10.05;76.26
67165;SHT31;54093;50.014;19.984;2023-04-16T06:41:50;11.93;73.33
67165;SHT31;54093;50.014;19.984;2023-04-16T06:51:11;11.25;65.02
67165;SHT31;54093;50.014;19.984;2023-04-16T07:00:32;10.55;67.93
67165;SHT31;54093;50.014;19.984;2023-04-16T07:09:53;10.38;69.11
67165;SHT31;54093;50.014;19.984;2023-04-16T07:19:14;11.31;70.12
67165;SHT31;54093;50.014;19.984;2023-04-16T07:28:36;12.40;62.37
67165;SHT31;54093;50.014;19.984;2023-04-16T07:37:57;12.52;63.16
67165;SHT31;54093;50.014;19.984;2023-04-16T07:47:18;12.76;63.47
67165;SHT31;54093;50.014;19.984;2023-04-16T07:56:39;13.30;66.20
67165;SHT31;54093;50.014;19.984;2023-04-16T08:05:59;15.08;57.60
67165;SHT31;54093;50.014;19.984;2023-04-16T08:15:20;15.14;60.42
67165;SHT31;54093;50.014;19.984;2023-04-16T08:24:42;15.50;57.81
67165;SHT31;54093;50.014;19.984;2023-04-16T08:34:03;14.29;59.14
67165;SHT31;54093;50.014;19.984;2023-04-16T08:43:24;15.02;63.27
67165;SHT31;54093;50.014;19.984;2023-04-16T08:52:56;16.82;58.50
67165;SHT31;54093;50.014;19.984;2023-04-16T09:02:18;16.45;52.69
67165;SHT31;54093;50.014;19.984;2023-04-16T09:11:39;16.21;56.68
67165;SHT31;54093;50.014;19.984;2023-04-16T09:21:00;16.89;53.56
67165;SHT31;54093;50.014;19.984;2023-04-16T09:30:22;17.57;51.05
67165;SHT31;54093;50.014;19.984;2023-04-16T09:39:51;17.60;50.95
67165;SHT31;54093;50.014;19.984;2023-04-16T09:49:14;17.40;48.05
67165;SHT31;54093;50.014;19.984;2023-04-16T09:58:35;17.42;48.25
67165;SHT31;54093;50.014;19.984;2023-04-16T10:08:00;17.33;49.61
67165;SHT31;54093;50.014;19.984;2023-04-16T10:17:22;17.71;47.85
67165;SHT31;54093;50.014;19.984;2023-04-16T10:26:43;17.96;44.66
67165;SHT31;54093;50.014;19.984;2023-04-16T10:45:36;17.14;47.21
67165;SHT31;54093;50.014;19.984;2023-04-16T10:54:57;16.58;47.29
67165;SHT31;54093;50.014;19.984;2023-04-16T11:13:42;17.92;43.64
67165;SHT31;54093;50.014;19.984;2023-04-16T11:23:09;18.26;42.33
67165;SHT31;54093;50.014;19.984;2023-04-16T11:32:31;18.19;44.52
67165;SHT31;54093;50.014;19.984;2023-04-16T11:41:53;19.32;42.08
67165;SHT31;54093;50.014;19.984;2023-04-16T11:51:15;19.20;40.33
67165;SHT31;54093;50.014;19.984;2023-04-16T12:00:36;18.39;42.00
67165;SHT31;54093;50.014;19.984;2023-04-16T12:10:05;18.77;39.63
67165;SHT31;54093;50.014;19.984;2023-04-16T12:19:26;19.46;41.06
67165;SHT31;54093;50.014;19.984;2023-04-16T12:28:47;19.75;39.86
67165;SHT31;54093;50.014;19.984;2023-04-16T12:38:08;19.74;39.43
67165;SHT31;54093;50.014;19.984;2023-04-16T12:47:30;19.98;37.43
67165;SHT31;54093;50.014;19.984;2023-04-16T12:56:51;19.63;39.77
67165;SHT31;54093;50.014;19.984;2023-04-16T13:06:13;18.83;40.52
67165;SHT31;54093;50.014;19.984;2023-04-16T13:15:34;18.71;39.71
67165;SHT31;54093;50.014;19.984;2023-04-16T13:24:55;18.77;41.41
67165;SHT31;54093;50.014;19.984;2023-04-16T13:34:16;18.36;41.10
67165;SHT31;54093;50.014;19.984;2023-04-16T13:43:37;18.13;41.67
67165;SHT31;54093;50.014;19.984;2023-04-16T13:52:58;17.78;40.74
67165;SHT31;54093;50.014;19.984;2023-04-16T14:02:19;17.69;43.16
67165;SHT31;54093;50.014;19.984;2023-04-16T14:11:41;17.86;42.60
67165;SHT31;54093;50.014;19.984;2023-04-16T14:21:02;17.79;43.15
67165;SHT31;54093;50.014;19.984;2023-04-16T14:30:23;17.92;43.02
67165;SHT31;54093;50.014;19.984;2023-04-16T14:39:44;17.86;42.29
67165;SHT31;54093;50.014;19.984;2023-04-16T14:49:05;17.64;43.40
67165;SHT31;54093;50.014;19.984;2023-04-16T14:58:26;17.35;44.94
67165;SHT31;54093;50.014;19.984;2023-04-16T15:07:47;17.12;43.26
67165;SHT31;54093;50.014;19.984;2023-04-16T15:17:08;16.89;44.99
67165;SHT31;54093;50.014;19.984;2023-04-16T15:26:29;16.75;44.96
67165;SHT31;54093;50.014;19.984;2023-04-16T15:35:50;16.69;46.65
67165;SHT31;54093;50.014;19.984;2023-04-16T15:45:11;16.52;47.64
67165;SHT31;54093;50.014;19.984;2023-04-16T15:54:35;16.27;47.36
67165;SHT31;54093;50.014;19.984;2023-04-16T16:03:55;16.04;48.53
67165;SHT31;54093;50.014;19.984;2023-04-16T16:13:17;15.87;48.86
67165;SHT31;54093;50.014;19.984;2023-04-16T16:22:37;15.73;50.18
67165;SHT31;54093;50.014;19.984;2023-04-16T16:31:58;15.63;49.72
67165;SHT31;54093;50.014;19.984;2023-04-16T16:41:20;15.48;50.90
67165;SHT31;54093;50.014;19.984;2023-04-16T16:50:41;15.38;52.03
67165;SHT31;54093;50.014;19.984;2023-04-16T17:00:04;15.18;53.32
67165;SHT31;54093;50.014;19.984;2023-04-16T17:09:34;15.07;53.73
67165;SHT31;54093;50.014;19.984;2023-04-16T17:18:55;14.92;55.29
67165;SHT31;54093;50.014;19.984;2023-04-16T17:28:17;14.70;55.95
67165;SHT31;54093;50.014;19.984;2023-04-16T17:37:38;14.56;56.79
67165;SHT31;54093;50.014;19.984;2023-04-16T17:46:59;14.34;58.18
67165;SHT31;54093;50.014;19.984;2023-04-16T17:56:20;14.18;59.53
67165;SHT31;54093;50.014;19.984;2023-04-16T18:05:41;14.01;59.55
67165;SHT31;54093;50.014;19.984;2023-04-16T18:15:02;13.68;60.46
67165;SHT31;54093;50.014;19.984;2023-04-16T18:24:23;13.43;61.78
67165;SHT31;54093;50.014;19.984;2023-04-16T18:33:44;13.13;63.15
67165;SHT31;54093;50.014;19.984;2023-04-16T18:43:06;12.89;63.91
67165;SHT31;54093;50.014;19.984;2023-04-16T18:52:27;12.61;65.02
67165;SHT31;54093;50.014;19.984;2023-04-16T19:01:48;12.49;65.28
67165;SHT31;54093;50.014;19.984;2023-04-16T19:11:08;12.40;65.33
67165;SHT31;54093;50.014;19.984;2023-04-16T19:20:33;11.99;67.12
67165;SHT31;54093;50.014;19.984;2023-04-16T19:29:54;11.94;67.35
67165;SHT31;54093;50.014;19.984;2023-04-16T19:39:15;11.83;67.16
67165;SHT31;54093;50.014;19.984;2023-04-16T19:48:36;11.55;68.38
67165;SHT31;54093;50.014;19.984;2023-04-16T19:57:56;11.46;68.53
67165;SHT31;54093;50.014;19.984;2023-04-16T20:07:19;11.36;68.44
67165;SHT31;54093;50.014;19.984;2023-04-16T20:16:40;11.07;69.30
67165;SHT31;54093;50.014;19.984;2023-04-16T20:26:03;11.00;68.91
67165;SHT31;54093;50.014;19.984;2023-04-16T20:35:24;10.91;69.43
67165;SHT31;54093;50.014;19.984;2023-04-16T20:44:44;10.74;69.41
67165;SHT31;54093;50.014;19.984;2023-04-16T20:54:10;10.74;69.58
67165;SHT31;54093;50.014;19.984;2023-04-16T21:03:31;10.41;70.30
67165;SHT31;54093;50.014;19.984;2023-04-16T21:12:52;10.36;70.34
67165;SHT31;54093;50.014;19.984;2023-04-16T21:22:13;10.05;70.83
67165;SHT31;54093;50.014;19.984;2023-04-16T21:31:33;10.05;70.17
67165;SHT31;54093;50.014;19.984;2023-04-16T21:40:54;9.81;70.70
67165;SHT31;54093;50.014;19.984;2023-04-16T21:50:16;9.77;71.09
67165;SHT31;54093;50.014;19.984;2023-04-16T21:59:38;9.60;71.37
67165;SHT31;54093;50.014;19.984;2023-04-16T22:08:59;9.18;72.35
67165;SHT31;54093;50.014;19.984;2023-04-16T22:18:22;9.50;71.04
67165;SHT31;54093;50.014;19.984;2023-04-16T22:27:46;9.16;72.20
67165;SHT31;54093;50.014;19.984;2023-04-16T22:37:07;9.15;72.19
67165;SHT31;54093;50.014;19.984;2023-04-16T22:46:28;9.02;72.11
67165;SHT31;54093;50.014;19.984;2023-04-16T22:55:49;8.91;71.49
67165;SHT31;54093;50.014;19.984;2023-04-16T23:05:10;8.60;72.71
67165;SHT31;54093;50.014;19.984;2023-04-16T23:14:31;8.60;72.57
67165;SHT31;54093;50.014;19.984;2023-04-16T23:23:52;8.14;73.20
67165;SHT31;54093;50.014;19.984;2023-04-16T23:33:13;8.40;71.84
67165;SHT31;54093;50.014;19.984;2023-04-16T23:42:34;8.23;72.00
67165;SHT31;54093;50.014;19.984;2023-04-16T23:51:55;8.09;73.82
